sensor_id;sensor_type;location;lat;lon;timestamp;temperature;humidity
16285;DHT22;8250;52.426;9.450;2022-09-09T00:02:28;16.20;99.90
16285;DHT22;8250;52.426;9.450;2022-09-09T00:04:59;16.20;99.90
16285;DHT22;8250;52.426;9.450;2022-09-09T00:07:37;16.10;99.90
16285;DHT22;8250;52.426;9.450;2022-09-09T00:10:16;16.10;99.90
16285;DHT22;8250;52.426;9.450;2022-09-09T00:12:51;16.10;99.90
16285;DHT22;8250;52.426;9.450;2022-09-09T00:15:24;16.10;99.90
16285;DHT22;8250;52.426;9.450;2022-09-09T00:17:58;16.10;99.90
16285;DHT22;8250;52.426;9.450;2022-09-09T00:20:31;16.10;99.90
16285;DHT22;8250;52.426;9.450;2022-09-09T00:23:04;16.10;99.90
16285;DHT22;8250;52.426;9.450;2022-09-09T00:25:42;16.00;99.90
16285;DHT22;8250;52.426;9.450;2022-09-09T00:28:16;16.00;99.90
16285;DHT22;8250;52.426;9.450;2022-09-09T00:30:44;15.90;99.90
16285;DHT22;8250;52.426;9.450;2022-09-09T00:33:17;16.00;99.90
16285;DHT22;8250;52.426;9.450;2022-09-09T00:35:48;16.00;99.90
16285;DHT22;8250;52.426;9.450;2022-09-09T00:38:19;15.90;99.90
16285;DHT22;8250;52.426;9.450;2022-09-09T00:40:50;15.90;99.90
16285;DHT22;8250;52.426;9.450;2022-09-09T00:43:27;15.90;99.90
16285;DHT22;8250;52.426;9.450;2022-09-09T00:49:00;15.90;99.90
16285;DHT22;8250;52.426;9.450;2022-09-09T00:51:38;15.90;99.90
16285;DHT22;8250;52.426;9.450;2022-09-09T00:54:21;15.90;99.90
16285;DHT22;8250;52.426;9.450;2022-09-09T00:57:01;15.90;99.90
16285;DHT22;8250;52.426;9.450;2022-09-09T00:59:36;15.90;99.90
16285;DHT22;8250;52.426;9.450;2022-09-09T01:02:15;15.90;99.90
16285;DHT22;8250;52.426;9.450;2022-09-09T01:04:46;15.90;99.90
16285;DHT22;8250;52.426;9.450;2022-09-09T01:07:16;15.90;99.90
16285;DHT22;8250;52.426;9.450;2022-09-09T01:09:52;15.90;99.90
16285;DHT22;8250;52.426;9.450;2022-09-09T01:12:26;15.90;99.90
16285;DHT22;8250;52.426;9.450;2022-09-09T01:15:01;15.90;99.90
16285;DHT22;8250;52.426;9.450;2022-09-09T01:17:31;15.90;99.90
16285;DHT22;8250;52.426;9.450;2022-09-09T01:20:08;15.80;99.90
16285;DHT22;8250;52.426;9.450;2022-09-09T01:22:40;15.90;99.90
16285;DHT22;8250;52.426;9.450;2022-09-09T01:25:21;15.90;99.90
16285;DHT22;8250;52.426;9.450;2022-09-09T01:27:52;15.90;99.90
16285;DHT22;8250;52.426;9.450;2022-09-09T01:30:20;15.80;99.90
16285;DHT22;8250;52.426;9.450;2022-09-09T01:32:49;15.90;99.90
16285;DHT22;8250;52.426;9.450;2022-09-09T01:35:26;15.90;99.90
16285;DHT22;8250;52.426;9.450;2022-09-09T01:37:56;15.90;99.90
16285;DHT22;8250;52.426;9.450;2022-09-09T01:40:23;15.90;99.90
16285;DHT22;8250;52.426;9.450;2022-09-09T01:42:52;15.90;99.90
16285;DHT22;8250;52.426;9.450;2022-09-09T01:45:19;15.90;99.90
16285;DHT22;8250;52.426;9.450;2022-09-09T01:47:46;15.90;99.90
16285;DHT22;8250;52.426;9.450;2022-09-09T01:50:15;15.90;99.90
16285;DHT22;8250;52.426;9.450;2022-09-09T01:52:44;15.90;99.90
16285;DHT22;8250;52.426;9.450;2022-09-09T01:55:12;15.90;99.90
16285;DHT22;8250;52.426;9.450;2022-09-09T01:57:43;15.90;99.90
16285;DHT22;8250;52.426;9.450;2022-09-09T02:00:14;15.90;99.90
16285;DHT22;8250;52.426;9.450;2022-09-09T02:02:46;15.90;99.90
16285;DHT22;8250;52.426;9.450;2022-09-09T02:05:27;15.90;99.90
16285;DHT22;8250;52.426;9.450;2022-09-09T02:08:00;15.90;99.90
16285;DHT22;8250;52.426;9.450;2022-09-09T02:10:32;15.90;99.90
16285;DHT22;8250;52.426;9.450;2022-09-09T02:13:04;15.80;99.90
16285;DHT22;8250;52.426;9.450;2022-09-09T02:15:38;15.80;99.90
16285;DHT22;8250;52.426;9.450;2022-09-09T02:18:09;15.80;99.90
16285;DHT22;8250;52.426;9.450;2022-09-09T02:20:38;15.80;99.90
16285;DHT22;8250;52.426;9.450;2022-09-09T02:23:05;15.80;99.90
16285;DHT22;8250;52.426;9.450;2022-09-09T02:25:35;15.80;99.90
16285;DHT22;8250;52.426;9.450;2022-09-09T02:28:06;15.80;99.90
16285;DHT22;8250;52.426;9.450;2022-09-09T02:30:37;15.80;99.90
16285;DHT22;8250;52.426;9.450;2022-09-09T02:33:06;15.80;99.90
16285;DHT22;8250;52.426;9.450;2022-09-09T02:35:36;15.80;99.90
16285;DHT22;8250;52.426;9.450;2022-09-09T02:38:07;15.80;99.90
16285;DHT22;8250;52.426;9.450;2022-09-09T02:40:35;15.70;99.90
16285;DHT22;8250;52.426;9.450;2022-09-09T02:43:01;15.80;99.90
16285;DHT22;8250;52.426;9.450;2022-09-09T02:45:44;15.80;99.90
16285;DHT22;8250;52.426;9.450;2022-09-09T02:48:21;15.80;99.90
16285;DHT22;8250;52.426;9.450;2022-09-09T02:50:54;15.70;99.90
16285;DHT22;8250;52.426;9.450;2022-09-09T02:53:28;15.70;99.90
16285;DHT22;8250;52.426;9.450;2022-09-09T02:56:01;15.70;99.90
16285;DHT22;8250;52.426;9.450;2022-09-09T02:58:30;15.70;99.90
16285;DHT22;8250;52.426;9.450;2022-09-09T03:00:58;15.70;99.90
16285;DHT22;8250;52.426;9.450;2022-09-09T03:03:26;15.80;99.90
16285;DHT22;8250;52.426;9.450;2022-09-09T03:05:53;15.80;99.90
16285;DHT22;8250;52.426;9.450;2022-09-09T03:08:20;15.80;99.90
16285;DHT22;8250;52.426;9.450;2022-09-09T03:10:47;15.80;99.90
16285;DHT22;8250;52.426;9.450;2022-09-09T03:13:14;15.80;99.90
16285;DHT22;8250;52.426;9.450;2022-09-09T03:15:41;15.90;99.90
16285;DHT22;8250;52.426;9.450;2022-09-09T03:18:09;15.90;99.90
16285;DHT22;8250;52.426;9.450;2022-09-09T03:20:36;15.90;99.90
16285;DHT22;8250;52.426;9.450;2022-09-09T03:23:03;15.90;99.90
16285;DHT22;8250;52.426;9.450;2022-09-09T03:25:30;15.90;99.90
16285;DHT22;8250;52.426;9.450;2022-09-09T03:27:57;15.90;99.90
16285;DHT22;8250;52.426;9.450;2022-09-09T03:30:26;15.90;99.90
16285;DHT22;8250;52.426;9.450;2022-09-09T03:32:53;15.90;99.90
16285;DHT22;8250;52.426;9.450;2022-09-09T03:35:22;15.90;99.90
16285;DHT22;8250;52.426;9.450;2022-09-09T03:37:48;15.90;99.90
16285;DHT22;8250;52.426;9.450;2022-09-09T03:40:15;15.90;99.90
16285;DHT22;8250;52.426;9.450;2022-09-09T03:42:43;15.90;99.90
16285;DHT22;8250;52.426;9.450;2022-09-09T03:45:10;15.90;99.90
16285;DHT22;8250;52.426;9.450;2022-09-09T03:47:37;15.90;99.90
16285;DHT22;8250;52.426;9.450;2022-09-09T03:50:05;15.90;99.90
16285;DHT22;8250;52.426;9.450;2022-09-09T03:52:36;15.90;99.90
16285;DHT22;8250;52.426;9.450;2022-09-09T03:55:03;15.90;99.90
16285;DHT22;8250;52.426;9.450;2022-09-09T03:57:30;15.90;99.90
16285;DHT22;8250;52.426;9.450;2022-09-09T04:00:00;15.90;99.90
16285;DHT22;8250;52.426;9.450;2022-09-09T04:02:27;15.90;99.90
16285;DHT22;8250;52.426;9.450;2022-09-09T04:04:54;15.80;99.90
16285;DHT22;8250;52.426;9.450;2022-09-09T04:07:21;15.80;99.90
16285;DHT22;8250;52.426;9.450;2022-09-09T04:09:50;15.80;99.90
16285;DHT22;8250;52.426;9.450;2022-09-09T04:12:16;15.80;99.90
16285;DHT22;8250;52.426;9.450;2022-09-09T04:14:43;15.80;99.90
16285;DHT22;8250;52.426;9.450;2022-09-09T04:17:10;15.80;99.90
16285;DHT22;8250;52.426;9.450;2022-09-09T04:19:37;15.80;99.90
16285;DHT22;8250;52.426;9.450;2022-09-09T04:22:04;15.90;99.90
16285;DHT22;8250;52.426;9.450;2022-09-09T04:24:31;15.90;99.90
16285;DHT22;8250;52.426;9.450;2022-09-09T04:26:59;15.90;99.90
16285;DHT22;8250;52.426;9.450;2022-09-09T04:29:26;15.90;99.90
16285;DHT22;8250;52.426;9.450;2022-09-09T04:31:53;15.90;99.90
16285;DHT22;8250;52.426;9.450;2022-09-09T04:34:19;16.00;99.90
16285;DHT22;8250;52.426;9.450;2022-09-09T04:36:46;16.00;99.90
16285;DHT22;8250;52.426;9.450;2022-09-09T04:39:13;16.00;99.90
16285;DHT22;8250;52.426;9.450;2022-09-09T04:41:40;16.00;99.90
16285;DHT22;8250;52.426;9.450;2022-09-09T04:44:08;16.00;99.90
16285;DHT22;8250;52.426;9.450;2022-09-09T04:46:35;16.00;99.90
16285;DHT22;8250;52.426;9.450;2022-09-09T04:49:02;16.00;99.90
16285;DHT22;8250;52.426;9.450;2022-09-09T04:51:29;16.00;99.90
16285;DHT22;8250;52.426;9.450;2022-09-09T04:53:57;16.00;99.90
16285;DHT22;8250;52.426;9.450;2022-09-09T04:56:25;16.00;99.90
16285;DHT22;8250;52.426;9.450;2022-09-09T04:58:55;16.00;99.90
16285;DHT22;8250;52.426;9.450;2022-09-09T05:01:23;16.00;99.90
16285;DHT22;8250;52.426;9.450;2022-09-09T05:03:51;16.10;99.90
16285;DHT22;8250;52.426;9.450;2022-09-09T05:06:19;16.10;99.90
16285;DHT22;8250;52.426;9.450;2022-09-09T05:08:47;16.10;99.90
16285;DHT22;8250;52.426;9.450;2022-09-09T05:11:19;16.10;99.90
16285;DHT22;8250;52.426;9.450;2022-09-09T05:13:48;16.10;99.90
16285;DHT22;8250;52.426;9.450;2022-09-09T05:16:15;16.10;99.90
16285;DHT22;8250;52.426;9.450;2022-09-09T05:18:44;16.10;99.90
16285;DHT22;8250;52.426;9.450;2022-09-09T05:21:13;16.10;99.90
16285;DHT22;8250;52.426;9.450;2022-09-09T05:23:40;16.10;99.90
16285;DHT22;8250;52.426;9.450;2022-09-09T05:26:11;16.10;99.90
16285;DHT22;8250;52.426;9.450;2022-09-09T05:28:39;16.20;99.90
16285;DHT22;8250;52.426;9.450;2022-09-09T05:31:07;16.20;99.90
16285;DHT22;8250;52.426;9.450;2022-09-09T05:33:35;16.20;99.90
16285;DHT22;8250;52.426;9.450;2022-09-09T05:36:05;16.20;99.90
16285;DHT22;8250;52.426;9.450;2022-09-09T05:38:34;16.30;99.90
16285;DHT22;8250;52.426;9.450;2022-09-09T05:41:02;16.30;99.90
16285;DHT22;8250;52.426;9.450;2022-09-09T05:43:29;16.30;99.90
16285;DHT22;8250;52.426;9.450;2022-09-09T05:46:02;16.40;99.90
16285;DHT22;8250;52.426;9.450;2022-09-09T05:48:32;16.40;99.90
16285;DHT22;8250;52.426;9.450;2022-09-09T05:51:00;16.50;99.90
16285;DHT22;8250;52.426;9.450;2022-09-09T05:53:29;16.50;99.90
16285;DHT22;8250;52.426;9.450;2022-09-09T05:56:01;16.50;99.90
16285;DHT22;8250;52.426;9.450;2022-09-09T05:58:30;16.60;99.90
16285;DHT22;8250;52.426;9.450;2022-09-09T06:01:01;16.60;99.90
16285;DHT22;8250;52.426;9.450;2022-09-09T06:03:28;16.60;99.90
16285;DHT22;8250;52.426;9.450;2022-09-09T06:05:59;16.60;99.90
16285;DHT22;8250;52.426;9.450;2022-09-09T06:08:26;16.70;99.90
16285;DHT22;8250;52.426;9.450;2022-09-09T06:11:01;16.70;99.90
16285;DHT22;8250;52.426;9.450;2022-09-09T06:13:29;16.70;99.90
16285;DHT22;8250;52.426;9.450;2022-09-09T06:15:56;16.70;99.90
16285;DHT22;8250;52.426;9.450;2022-09-09T06:18:23;16.90;99.90
16285;DHT22;8250;52.426;9.450;2022-09-09T06:20:58;17.00;99.90
16285;DHT22;8250;52.426;9.450;2022-09-09T06:23:26;17.10;99.90
16285;DHT22;8250;52.426;9.450;2022-09-09T06:26:03;17.20;99.90
16285;DHT22;8250;52.426;9.450;2022-09-09T06:28:31;17.30;99.90
16285;DHT22;8250;52.426;9.450;2022-09-09T06:30:58;17.40;99.90
16285;DHT22;8250;52.426;9.450;2022-09-09T06:33:26;17.50;99.90
16285;DHT22;8250;52.426;9.450;2022-09-09T06:35:53;17.50;99.90
16285;DHT22;8250;52.426;9.450;2022-09-09T06:38:22;17.50;99.90
16285;DHT22;8250;52.426;9.450;2022-09-09T06:40:52;17.40;99.90
16285;DHT22;8250;52.426;9.450;2022-09-09T06:43:22;17.40;99.90
16285;DHT22;8250;52.426;9.450;2022-09-09T06:45:56;17.40;99.90
16285;DHT22;8250;52.426;9.450;2022-09-09T06:48:23;17.30;99.90
16285;DHT22;8250;52.426;9.450;2022-09-09T06:50:51;17.30;99.90
16285;DHT22;8250;52.426;9.450;2022-09-09T06:53:26;17.30;99.90
16285;DHT22;8250;52.426;9.450;2022-09-09T06:55:53;17.30;99.90
16285;DHT22;8250;52.426;9.450;2022-09-09T06:58:21;17.30;99.90
16285;DHT22;8250;52.426;9.450;2022-09-09T07:00:48;17.30;99.90
16285;DHT22;8250;52.426;9.450;2022-09-09T07:03:15;17.30;99.90
16285;DHT22;8250;52.426;9.450;2022-09-09T07:05:42;17.40;99.90
16285;DHT22;8250;52.426;9.450;2022-09-09T07:08:10;17.40;99.90
16285;DHT22;8250;52.426;9.450;2022-09-09T07:10:37;17.50;99.90
16285;DHT22;8250;52.426;9.450;2022-09-09T07:13:04;17.60;99.90
16285;DHT22;8250;52.426;9.450;2022-09-09T07:15:33;17.80;99.90
16285;DHT22;8250;52.426;9.450;2022-09-09T07:18:01;17.90;99.90
16285;DHT22;8250;52.426;9.450;2022-09-09T07:20:28;18.10;99.90
16285;DHT22;8250;52.426;9.450;2022-09-09T07:22:55;18.20;99.90
16285;DHT22;8250;52.426;9.450;2022-09-09T07:25:24;18.30;99.90
16285;DHT22;8250;52.426;9.450;2022-09-09T07:27:56;18.40;99.90
16285;DHT22;8250;52.426;9.450;2022-09-09T07:30:23;18.60;99.90
16285;DHT22;8250;52.426;9.450;2022-09-09T07:32:52;18.90;99.90
16285;DHT22;8250;52.426;9.450;2022-09-09T07:35:20;19.20;99.90
16285;DHT22;8250;52.426;9.450;2022-09-09T07:37:47;19.60;99.90
16285;DHT22;8250;52.426;9.450;2022-09-09T07:40:14;19.90;99.90
16285;DHT22;8250;52.426;9.450;2022-09-09T07:42:41;20.00;99.90
16285;DHT22;8250;52.426;9.450;2022-09-09T07:45:08;20.10;99.90
16285;DHT22;8250;52.426;9.450;2022-09-09T07:47:35;20.10;99.90
16285;DHT22;8250;52.426;9.450;2022-09-09T07:50:04;20.00;99.90
16285;DHT22;8250;52.426;9.450;2022-09-09T07:52:31;20.00;99.90
16285;DHT22;8250;52.426;9.450;2022-09-09T07:54:58;19.90;99.90
16285;DHT22;8250;52.426;9.450;2022-09-09T07:57:25;19.90;99.90
16285;DHT22;8250;52.426;9.450;2022-09-09T07:59:53;19.80;99.90
16285;DHT22;8250;52.426;9.450;2022-09-09T08:02:19;19.80;99.90
16285;DHT22;8250;52.426;9.450;2022-09-09T08:04:46;19.80;99.90
16285;DHT22;8250;52.426;9.450;2022-09-09T08:07:15;19.80;99.90
16285;DHT22;8250;52.426;9.450;2022-09-09T08:09:42;19.70;99.90
16285;DHT22;8250;52.426;9.450;2022-09-09T08:12:09;19.60;99.90
16285;DHT22;8250;52.426;9.450;2022-09-09T08:14:38;19.60;99.90
16285;DHT22;8250;52.426;9.450;2022-09-09T08:17:05;19.50;99.90
16285;DHT22;8250;52.426;9.450;2022-09-09T08:19:32;19.50;99.90
16285;DHT22;8250;52.426;9.450;2022-09-09T08:22:02;19.50;99.90
16285;DHT22;8250;52.426;9.450;2022-09-09T08:24:31;19.50;99.90
16285;DHT22;8250;52.426;9.450;2022-09-09T08:26:57;19.50;99.90
16285;DHT22;8250;52.426;9.450;2022-09-09T08:29:25;19.50;99.90
16285;DHT22;8250;52.426;9.450;2022-09-09T08:31:54;19.50;99.90
16285;DHT22;8250;52.426;9.450;2022-09-09T08:34:23;19.50;99.90
16285;DHT22;8250;52.426;9.450;2022-09-09T08:36:51;19.50;99.90
16285;DHT22;8250;52.426;9.450;2022-09-09T08:39:18;19.50;99.90
16285;DHT22;8250;52.426;9.450;2022-09-09T08:42:15;19.50;99.90
16285;DHT22;8250;52.426;9.450;2022-09-09T08:44:55;19.60;99.90
16285;DHT22;8250;52.426;9.450;2022-09-09T08:47:33;19.60;99.90
16285;DHT22;8250;52.426;9.450;2022-09-09T08:50:11;19.60;99.90
16285;DHT22;8250;52.426;9.450;2022-09-09T08:52:44;19.60;99.90
16285;DHT22;8250;52.426;9.450;2022-09-09T08:55:21;19.60;99.90
16285;DHT22;8250;52.426;9.450;2022-09-09T08:57:52;19.60;99.90
16285;DHT22;8250;52.426;9.450;2022-09-09T09:00:20;19.50;99.90
16285;DHT22;8250;52.426;9.450;2022-09-09T09:02:56;19.60;99.90
16285;DHT22;8250;52.426;9.450;2022-09-09T09:05:28;19.70;99.90
16285;DHT22;8250;52.426;9.450;2022-09-09T09:08:03;19.70;99.90
16285;DHT22;8250;52.426;9.450;2022-09-09T09:10:45;19.70;99.90
16285;DHT22;8250;52.426;9.450;2022-09-09T09:13:20;19.80;99.90
16285;DHT22;8250;52.426;9.450;2022-09-09T09:15:52;19.80;99.90
16285;DHT22;8250;52.426;9.450;2022-09-09T09:18:20;19.80;99.90
16285;DHT22;8250;52.426;9.450;2022-09-09T09:20:53;19.80;99.90
16285;DHT22;8250;52.426;9.450;2022-09-09T09:23:23;19.80;99.90
16285;DHT22;8250;52.426;9.450;2022-09-09T09:25:53;19.80;99.90
16285;DHT22;8250;52.426;9.450;2022-09-09T09:28:26;19.90;99.90
16285;DHT22;8250;52.426;9.450;2022-09-09T09:30:56;19.90;99.90
16285;DHT22;8250;52.426;9.450;2022-09-09T09:33:28;19.90;99.90
16285;DHT22;8250;52.426;9.450;2022-09-09T09:35:57;20.00;99.90
16285;DHT22;8250;52.426;9.450;2022-09-09T09:38:27;20.00;99.90
16285;DHT22;8250;52.426;9.450;2022-09-09T09:40:55;20.00;99.90
16285;DHT22;8250;52.426;9.450;2022-09-09T09:43:27;20.10;99.90
16285;DHT22;8250;52.426;9.450;2022-09-09T09:45:55;20.10;99.90
16285;DHT22;8250;52.426;9.450;2022-09-09T09:48:24;20.00;99.90
16285;DHT22;8250;52.426;9.450;2022-09-09T09:50:53;20.00;99.90
16285;DHT22;8250;52.426;9.450;2022-09-09T09:53:23;20.10;99.90
16285;DHT22;8250;52.426;9.450;2022-09-09T09:55:55;20.10;99.90
16285;DHT22;8250;52.426;9.450;2022-09-09T09:58:24;20.10;99.90
16285;DHT22;8250;52.426;9.450;2022-09-09T10:00:53;20.10;99.90
16285;DHT22;8250;52.426;9.450;2022-09-09T10:03:23;20.10;99.90
16285;DHT22;8250;52.426;9.450;2022-09-09T10:05:50;20.00;99.90
16285;DHT22;8250;52.426;9.450;2022-09-09T10:08:18;20.00;99.90
16285;DHT22;8250;52.426;9.450;2022-09-09T10:11:02;20.10;99.90
16285;DHT22;8250;52.426;9.450;2022-09-09T10:13:39;20.10;99.90
16285;DHT22;8250;52.426;9.450;2022-09-09T10:16:19;20.10;99.90
16285;DHT22;8250;52.426;9.450;2022-09-09T10:18:58;20.20;99.90
16285;DHT22;8250;52.426;9.450;2022-09-09T10:24:31;20.30;99.90
16285;DHT22;8250;52.426;9.450;2022-09-09T10:27:05;20.40;99.90
16285;DHT22;8250;52.426;9.450;2022-09-09T10:29:52;20.40;99.90
16285;DHT22;8250;52.426;9.450;2022-09-09T10:32:36;20.50;99.90
16285;DHT22;8250;52.426;9.450;2022-09-09T10:35:10;20.60;99.90
16285;DHT22;8250;52.426;9.450;2022-09-09T10:37:48;20.50;99.90
16285;DHT22;8250;52.426;9.450;2022-09-09T10:40:23;20.60;99.90
16285;DHT22;8250;52.426;9.450;2022-09-09T10:42:55;20.60;99.90
16285;DHT22;8250;52.426;9.450;2022-09-09T10:45:30;20.70;99.90
16285;DHT22;8250;52.426;9.450;2022-09-09T10:48:20;20.70;99.90
16285;DHT22;8250;52.426;9.450;2022-09-09T10:50:55;20.80;99.90
16285;DHT22;8250;52.426;9.450;2022-09-09T10:53:35;20.70;99.90
16285;DHT22;8250;52.426;9.450;2022-09-09T10:56:06;20.70;99.90
16285;DHT22;8250;52.426;9.450;2022-09-09T10:58:40;20.80;99.90
16285;DHT22;8250;52.426;9.450;2022-09-09T11:01:16;21.00;99.90
16285;DHT22;8250;52.426;9.450;2022-09-09T11:03:50;21.10;99.90
16285;DHT22;8250;52.426;9.450;2022-09-09T11:06:21;21.20;99.90
16285;DHT22;8250;52.426;9.450;2022-09-09T11:08:52;21.20;99.90
16285;DHT22;8250;52.426;9.450;2022-09-09T11:11:25;21.20;99.90
16285;DHT22;8250;52.426;9.450;2022-09-09T11:13:57;21.20;99.90
16285;DHT22;8250;52.426;9.450;2022-09-09T11:16:29;21.10;99.90
16285;DHT22;8250;52.426;9.450;2022-09-09T11:19:01;21.20;99.90
16285;DHT22;8250;52.426;9.450;2022-09-09T11:21:32;21.70;99.90
16285;DHT22;8250;52.426;9.450;2022-09-09T11:24:04;22.20;99.90
16285;DHT22;8250;52.426;9.450;2022-09-09T11:26:38;22.30;99.90
16285;DHT22;8250;52.426;9.450;2022-09-09T11:29:24;22.10;99.90
16285;DHT22;8250;52.426;9.450;2022-09-09T11:32:04;21.90;99.90
16285;DHT22;8250;52.426;9.450;2022-09-09T11:34:43;21.60;99.90
16285;DHT22;8250;52.426;9.450;2022-09-09T11:37:37;21.50;99.90
16285;DHT22;8250;52.426;9.450;2022-09-09T11:40:17;21.40;99.90
16285;DHT22;8250;52.426;9.450;2022-09-09T11:42:46;21.30;99.90
16285;DHT22;8250;52.426;9.450;2022-09-09T11:45:24;21.20;99.90
16285;DHT22;8250;52.426;9.450;2022-09-09T11:47:58;21.00;99.90
16285;DHT22;8250;52.426;9.450;2022-09-09T11:50:31;20.90;99.90
16285;DHT22;8250;52.426;9.450;2022-09-09T11:53:21;20.80;99.90
16285;DHT22;8250;52.426;9.450;2022-09-09T11:56:00;20.70;99.90
16285;DHT22;8250;52.426;9.450;2022-09-09T11:58:38;20.60;99.90
16285;DHT22;8250;52.426;9.450;2022-09-09T12:01:25;20.40;99.90
16285;DHT22;8250;52.426;9.450;2022-09-09T12:04:05;20.30;99.90
16285;DHT22;8250;52.426;9.450;2022-09-09T12:06:42;20.20;99.90
16285;DHT22;8250;52.426;9.450;2022-09-09T12:09:19;20.10;99.90
16285;DHT22;8250;52.426;9.450;2022-09-09T12:11:50;20.10;99.90
16285;DHT22;8250;52.426;9.450;2022-09-09T12:14:22;20.10;99.90
16285;DHT22;8250;52.426;9.450;2022-09-09T12:16:49;20.00;99.90
16285;DHT22;8250;52.426;9.450;2022-09-09T12:19:19;20.00;99.90
16285;DHT22;8250;52.426;9.450;2022-09-09T12:21:51;20.00;99.90
16285;DHT22;8250;52.426;9.450;2022-09-09T12:24:26;20.10;99.90
16285;DHT22;8250;52.426;9.450;2022-09-09T12:26:59;20.10;99.90
16285;DHT22;8250;52.426;9.450;2022-09-09T12:29:38;20.10;99.90
16285;DHT22;8250;52.426;9.450;2022-09-09T12:32:11;20.00;99.90
16285;DHT22;8250;52.426;9.450;2022-09-09T12:34:41;20.10;99.90
16285;DHT22;8250;52.426;9.450;2022-09-09T12:37:17;20.20;99.90
16285;DHT22;8250;52.426;9.450;2022-09-09T12:39:48;20.30;99.90
16285;DHT22;8250;52.426;9.450;2022-09-09T12:42:17;20.30;99.90
16285;DHT22;8250;52.426;9.450;2022-09-09T12:44:55;20.30;99.90
16285;DHT22;8250;52.426;9.450;2022-09-09T12:47:25;20.40;99.90
16285;DHT22;8250;52.426;9.450;2022-09-09T12:49:55;20.60;99.90
16285;DHT22;8250;52.426;9.450;2022-09-09T12:52:26;20.70;99.90
16285;DHT22;8250;52.426;9.450;2022-09-09T12:54:55;20.80;99.90
16285;DHT22;8250;52.426;9.450;2022-09-09T12:57:25;20.90;99.90
16285;DHT22;8250;52.426;9.450;2022-09-09T12:59:52;21.00;99.90
16285;DHT22;8250;52.426;9.450;2022-09-09T13:02:31;21.10;99.90
16285;DHT22;8250;52.426;9.450;2022-09-09T13:05:15;21.10;99.90
16285;DHT22;8250;52.426;9.450;2022-09-09T13:07:43;21.10;99.90
16285;DHT22;8250;52.426;9.450;2022-09-09T13:10:11;21.00;99.90
16285;DHT22;8250;52.426;9.450;2022-09-09T13:12:39;21.00;99.90
16285;DHT22;8250;52.426;9.450;2022-09-09T13:15:16;20.90;99.90
16285;DHT22;8250;52.426;9.450;2022-09-09T13:17:50;20.90;99.90
16285;DHT22;8250;52.426;9.450;2022-09-09T13:20:20;20.90;99.90
16285;DHT22;8250;52.426;9.450;2022-09-09T13:22:48;20.80;99.90
16285;DHT22;8250;52.426;9.450;2022-09-09T13:25:21;20.90;99.90
16285;DHT22;8250;52.426;9.450;2022-09-09T13:28:01;20.90;99.90
16285;DHT22;8250;52.426;9.450;2022-09-09T13:30:31;20.90;99.90
16285;DHT22;8250;52.426;9.450;2022-09-09T13:33:22;20.90;99.90
16285;DHT22;8250;52.426;9.450;2022-09-09T13:35:52;21.00;99.90
16285;DHT22;8250;52.426;9.450;2022-09-09T13:38:21;21.10;99.90
16285;DHT22;8250;52.426;9.450;2022-09-09T13:40:56;21.30;99.90
16285;DHT22;8250;52.426;9.450;2022-09-09T13:43:28;21.40;99.90
16285;DHT22;8250;52.426;9.450;2022-09-09T13:45:58;21.60;99.90
16285;DHT22;8250;52.426;9.450;2022-09-09T13:48:25;21.70;99.90
16285;DHT22;8250;52.426;9.450;2022-09-09T13:51:01;21.90;99.90
16285;DHT22;8250;52.426;9.450;2022-09-09T13:53:30;21.90;99.90
16285;DHT22;8250;52.426;9.450;2022-09-09T13:55:58;21.80;99.90
16285;DHT22;8250;52.426;9.450;2022-09-09T13:58:25;21.80;99.90
16285;DHT22;8250;52.426;9.450;2022-09-09T14:00:53;21.80;99.90
16285;DHT22;8250;52.426;9.450;2022-09-09T14:03:20;21.80;99.90
16285;DHT22;8250;52.426;9.450;2022-09-09T14:05:47;21.90;99.90
16285;DHT22;8250;52.426;9.450;2022-09-09T14:08:22;21.90;99.90
16285;DHT22;8250;52.426;9.450;2022-09-09T14:10:49;22.00;99.90
16285;DHT22;8250;52.426;9.450;2022-09-09T14:13:16;22.20;99.90
16285;DHT22;8250;52.426;9.450;2022-09-09T14:15:42;22.30;99.90
16285;DHT22;8250;52.426;9.450;2022-09-09T14:18:11;22.20;99.90
16285;DHT22;8250;52.426;9.450;2022-09-09T14:20:40;22.20;99.90
16285;DHT22;8250;52.426;9.450;2022-09-09T14:23:10;22.20;99.90
16285;DHT22;8250;52.426;9.450;2022-09-09T14:25:41;22.20;99.90
16285;DHT22;8250;52.426;9.450;2022-09-09T14:28:09;22.20;99.90
16285;DHT22;8250;52.426;9.450;2022-09-09T14:30:38;22.20;99.90
16285;DHT22;8250;52.426;9.450;2022-09-09T14:33:05;22.20;99.90
16285;DHT22;8250;52.426;9.450;2022-09-09T14:35:32;22.20;99.90
16285;DHT22;8250;52.426;9.450;2022-09-09T14:37:59;22.10;99.90
16285;DHT22;8250;52.426;9.450;2022-09-09T14:40:28;22.10;99.90
16285;DHT22;8250;52.426;9.450;2022-09-09T14:42:56;22.10;99.90
16285;DHT22;8250;52.426;9.450;2022-09-09T14:45:24;22.10;99.90
16285;DHT22;8250;52.426;9.450;2022-09-09T14:47:52;22.00;99.90
16285;DHT22;8250;52.426;9.450;2022-09-09T14:50:19;22.00;99.90
16285;DHT22;8250;52.426;9.450;2022-09-09T14:52:46;21.90;99.90
16285;DHT22;8250;52.426;9.450;2022-09-09T14:55:14;21.90;99.90
16285;DHT22;8250;52.426;9.450;2022-09-09T14:57:41;21.90;99.90
16285;DHT22;8250;52.426;9.450;2022-09-09T15:00:10;21.90;99.90
16285;DHT22;8250;52.426;9.450;2022-09-09T15:02:37;21.90;99.90
16285;DHT22;8250;52.426;9.450;2022-09-09T15:05:05;21.80;99.90
16285;DHT22;8250;52.426;9.450;2022-09-09T15:07:32;21.80;99.90
16285;DHT22;8250;52.426;9.450;2022-09-09T15:09:59;21.80;99.90
16285;DHT22;8250;52.426;9.450;2022-09-09T15:12:26;21.60;99.90
16285;DHT22;8250;52.426;9.450;2022-09-09T15:14:54;21.50;99.90
16285;DHT22;8250;52.426;9.450;2022-09-09T15:17:22;21.50;99.90
16285;DHT22;8250;52.426;9.450;2022-09-09T15:19:53;21.30;99.90
16285;DHT22;8250;52.426;9.450;2022-09-09T15:22:20;21.20;99.90
16285;DHT22;8250;52.426;9.450;2022-09-09T15:24:48;21.20;99.90
16285;DHT22;8250;52.426;9.450;2022-09-09T15:27:14;21.10;99.90
16285;DHT22;8250;52.426;9.450;2022-09-09T15:29:41;21.10;99.90
16285;DHT22;8250;52.426;9.450;2022-09-09T15:32:09;21.00;99.90
16285;DHT22;8250;52.426;9.450;2022-09-09T15:34:38;21.00;99.90
16285;DHT22;8250;52.426;9.450;2022-09-09T15:37:05;20.90;99.90
16285;DHT22;8250;52.426;9.450;2022-09-09T15:39:33;20.90;99.90
16285;DHT22;8250;52.426;9.450;2022-09-09T15:41:59;20.90;99.90
16285;DHT22;8250;52.426;9.450;2022-09-09T15:44:27;21.00;99.90
16285;DHT22;8250;52.426;9.450;2022-09-09T15:46:54;21.10;99.90
16285;DHT22;8250;52.426;9.450;2022-09-09T15:49:22;21.10;99.90
16285;DHT22;8250;52.426;9.450;2022-09-09T15:51:53;21.30;99.90
16285;DHT22;8250;52.426;9.450;2022-09-09T15:54:21;21.30;99.90
16285;DHT22;8250;52.426;9.450;2022-09-09T15:56:51;21.30;99.90
16285;DHT22;8250;52.426;9.450;2022-09-09T15:59:20;21.40;99.90
16285;DHT22;8250;52.426;9.450;2022-09-09T16:01:47;21.50;99.90
16285;DHT22;8250;52.426;9.450;2022-09-09T16:04:16;21.60;99.90
16285;DHT22;8250;52.426;9.450;2022-09-09T16:06:49;21.60;99.90
16285;DHT22;8250;52.426;9.450;2022-09-09T16:09:18;21.60;99.90
16285;DHT22;8250;52.426;9.450;2022-09-09T16:11:45;21.70;99.90
16285;DHT22;8250;52.426;9.450;2022-09-09T16:14:12;21.80;99.90